createdAt,value
2023-03-31T00:00:20.200Z,5.11
2023-03-31T00:01:20.192Z,5.11
2023-03-31T00:03:20.197Z,5.11
2023-03-31T00:04:20.313Z,4.94
2023-03-31T00:06:20.226Z,5.11
2023-03-31T00:08:20.188Z,5.22
2023-03-31T00:10:20.190Z,5.11
2023-03-31T00:11:20.201Z,4.94
2023-03-31T00:13:20.201Z,4.94
2023-03-31T00:14:20.217Z,4.94
2023-03-31T00:16:20.227Z,4.94
2023-03-31T00:17:20.208Z,4.94
2023-03-31T00:18:20.184Z,4.94
2023-03-31T00:19:20.189Z,4.94
2023-03-31T00:20:20.186Z,5.11
2023-03-31T00:21:20.193Z,4.94
2023-03-31T00:22:20.217Z,4.67
2023-03-31T00:24:20.222Z,4.94
2023-03-31T00:25:20.205Z,4.94
2023-03-31T00:26:20.197Z,4.94
2023-03-31T00:27:20.204Z,4.94
2023-03-31T00:28:20.185Z,5.11
2023-03-31T00:29:20.196Z,5.22
2023-03-31T00:30:20.194Z,5.11
2023-03-31T00:31:20.225Z,4.94
2023-03-31T00:32:20.196Z,4.94
2023-03-31T00:33:20.205Z,4.94
2023-03-31T00:34:20.188Z,5.11
2023-03-31T00:35:20.196Z,4.94
2023-03-31T00:37:20.192Z,5.11
2023-03-31T00:38:20.233Z,4.94
2023-03-31T00:40:20.183Z,4.94
2023-03-31T00:41:20.194Z,4.67
2023-03-31T00:42:20.205Z,5.11
2023-03-31T00:44:20.196Z,4.94
2023-03-31T00:45:20.184Z,4.94
2023-03-31T00:46:20.248Z,4.94
2023-03-31T00:47:20.196Z,5.11
2023-03-31T00:49:20.194Z,4.94
2023-03-31T00:50:20.200Z,4.94
2023-03-31T00:51:20.192Z,4.83
2023-03-31T00:52:20.197Z,4.94
2023-03-31T00:53:20.193Z,4.94
2023-03-31T00:54:20.239Z,4.94
2023-03-31T00:55:20.189Z,4.67
2023-03-31T00:56:20.188Z,4.94
2023-03-31T00:58:20.241Z,4.94
2023-03-31T01:00:20.199Z,4.94
2023-03-31T01:02:20.207Z,4.94
2023-03-31T01:03:20.243Z,4.94
2023-03-31T01:04:20.195Z,4.94
2023-03-31T01:05:20.207Z,5.11
2023-03-31T01:07:20.200Z,4.67
2023-03-31T01:08:20.184Z,4.94
2023-03-31T01:09:20.196Z,4.94
2023-03-31T01:10:20.247Z,4.83
2023-03-31T01:12:20.204Z,4.83
2023-03-31T01:14:20.199Z,4.94
2023-03-31T01:15:20.203Z,4.67
2023-03-31T01:17:20.339Z,4.94
2023-03-31T01:18:20.342Z,4.94
2023-03-31T01:20:20.221Z,4.94
2023-03-31T01:21:20.197Z,4.83
2023-03-31T01:23:20.190Z,4.94
2023-03-31T01:24:20.208Z,4.94
2023-03-31T01:26:20.219Z,5.11
2023-03-31T01:28:20.212Z,5.11
2023-03-31T01:29:20.217Z,4.94
2023-03-31T01:31:20.267Z,5.11
2023-03-31T01:33:20.191Z,4.83
2023-03-31T01:34:20.209Z,4.94
2023-03-31T01:35:20.197Z,4.83
2023-03-31T01:36:20.198Z,4.83
2023-03-31T01:37:20.221Z,4.94
2023-03-31T01:38:20.206Z,4.67
2023-03-31T01:39:20.199Z,4.94
2023-03-31T01:40:20.226Z,4.94
2023-03-31T01:41:20.208Z,4.83
2023-03-31T01:42:20.234Z,4.83
2023-03-31T01:44:20.206Z,4.67
2023-03-31T01:45:20.225Z,4.94
2023-03-31T01:46:20.247Z,4.83
2023-03-31T01:47:20.202Z,4.94
2023-03-31T01:48:20.210Z,4.83
2023-03-31T01:49:20.218Z,4.83
2023-03-31T01:50:20.227Z,4.94
2023-03-31T01:51:20.200Z,4.94
2023-03-31T01:52:20.234Z,4.83
2023-03-31T01:54:20.218Z,4.83
2023-03-31T01:56:20.203Z,4.83
2023-03-31T01:57:20.243Z,4.83
2023-03-31T01:58:20.238Z,4.94
2023-03-31T01:59:20.203Z,4.83
2023-03-31T02:00:20.213Z,4.94
2023-03-31T02:02:20.300Z,4.94
2023-03-31T02:03:20.405Z,4.67
2023-03-31T02:04:20.207Z,4.67
2023-03-31T02:05:20.217Z,4.94
2023-03-31T02:07:20.214Z,4.67
2023-03-31T02:08:20.199Z,4.83
2023-03-31T02:09:20.200Z,4.94
2023-03-31T02:11:20.209Z,4.83
2023-03-31T02:12:20.230Z,4.39
2023-03-31T02:14:20.242Z,4.83
2023-03-31T02:16:20.242Z,4.5
2023-03-31T02:17:20.216Z,4.67
2023-03-31T02:18:20.210Z,4.83
2023-03-31T02:19:20.204Z,4.5
2023-03-31T02:20:20.209Z,4.39
2023-03-31T02:22:20.217Z,4.5
2023-03-31T02:23:20.213Z,4.83
2023-03-31T02:25:20.203Z,4.67
2023-03-31T02:26:20.231Z,4.67
2023-03-31T02:27:20.202Z,4.83
2023-03-31T02:28:20.228Z,4.5
2023-03-31T02:30:20.239Z,4.67
2023-03-31T02:31:20.252Z,4.5
2023-03-31T02:32:20.207Z,4.11
2023-03-31T02:33:20.215Z,4.5
2023-03-31T02:34:20.206Z,4.5
2023-03-31T02:36:20.206Z,4.5
2023-03-31T02:37:20.209Z,4.5
2023-03-31T02:38:20.213Z,4.5
2023-03-31T02:39:20.197Z,4.11
2023-03-31T02:40:20.218Z,4.22
2023-03-31T02:42:20.218Z,4.67
2023-03-31T02:43:20.201Z,4.67
2023-03-31T02:44:20.204Z,4.67
2023-03-31T02:46:20.235Z,4.5
2023-03-31T02:48:20.210Z,4.39
2023-03-31T02:50:20.213Z,4.5
2023-03-31T02:52:20.201Z,4.83
2023-03-31T02:53:20.209Z,4.5
2023-03-31T02:54:20.231Z,4.67
2023-03-31T02:55:20.209Z,4.67
2023-03-31T02:56:20.215Z,4.5
2023-03-31T02:57:20.293Z,4.5
2023-03-31T02:58:20.204Z,4.83
2023-03-31T02:59:20.217Z,4.5
2023-03-31T03:00:20.233Z,4.67
2023-03-31T03:01:20.270Z,4.5
2023-03-31T03:02:20.259Z,4.5
2023-03-31T03:03:20.261Z,4.22
2023-03-31T03:04:20.206Z,4.39
2023-03-31T03:05:20.221Z,4.5
2023-03-31T03:06:20.216Z,4.5
2023-03-31T03:07:20.212Z,4.5
2023-03-31T03:08:20.219Z,4.5
2023-03-31T03:09:20.220Z,4.5
2023-03-31T03:10:20.209Z,4.39
2023-03-31T03:11:20.225Z,4.39
2023-03-31T03:12:20.220Z,4.5
2023-03-31T03:13:20.231Z,4.22
2023-03-31T03:15:20.224Z,4.22
2023-03-31T03:17:20.236Z,4.5
2023-03-31T03:18:20.306Z,4.5
2023-03-31T03:20:20.226Z,4.5
2023-03-31T03:21:20.211Z,4.67
2023-03-31T03:22:20.218Z,4.5
2023-03-31T03:23:20.229Z,4.67
2023-03-31T03:24:20.221Z,4.5
2023-03-31T03:25:20.222Z,4.39
2023-03-31T03:27:20.216Z,4.5
2023-03-31T03:28:20.226Z,4.5
2023-03-31T03:29:20.243Z,4.22
2023-03-31T03:30:20.213Z,4.5
2023-03-31T03:31:20.249Z,4.5
2023-03-31T03:32:20.233Z,4.5
2023-03-31T03:34:20.271Z,4.5
2023-03-31T03:36:20.244Z,4.22
2023-03-31T03:37:20.215Z,3.78
2023-03-31T03:38:20.225Z,4.11
2023-03-31T03:39:20.219Z,4.39
2023-03-31T03:40:20.210Z,4.5
2023-03-31T03:41:20.232Z,4.22
2023-03-31T03:42:20.229Z,4.11
2023-03-31T03:43:20.222Z,4.22
2023-03-31T03:45:20.223Z,4.39
2023-03-31T03:47:20.223Z,4.39
2023-03-31T03:48:20.234Z,4.39
2023-03-31T03:50:20.256Z,4.39
2023-03-31T03:52:20.226Z,4.5
2023-03-31T03:53:20.234Z,4.11
2023-03-31T03:55:20.242Z,4.22
2023-03-31T03:57:20.256Z,4.5
2023-03-31T03:59:20.226Z,4.5
2023-03-31T04:00:20.219Z,4.5
2023-03-31T04:01:20.222Z,4.39
2023-03-31T04:02:20.305Z,4.5
2023-03-31T04:04:20.237Z,4.11
2023-03-31T04:05:20.230Z,4.39
2023-03-31T04:06:20.381Z,4.39
2023-03-31T04:08:20.219Z,4.39
2023-03-31T04:09:20.235Z,4.39
2023-03-31T04:10:20.224Z,4.22
2023-03-31T04:11:20.239Z,4.22
2023-03-31T04:13:20.238Z,4.11
2023-03-31T04:14:20.241Z,4.22
2023-03-31T04:15:20.240Z,3.78
2023-03-31T04:16:20.232Z,4.39
2023-03-31T04:17:20.225Z,4.5
2023-03-31T04:18:20.236Z,4.5
2023-03-31T04:19:20.224Z,4.5
2023-03-31T04:20:20.277Z,4.39
2023-03-31T04:21:20.239Z,4.39
2023-03-31T04:22:20.254Z,3.78
2023-03-31T04:23:20.232Z,4.11
2023-03-31T04:24:21.064Z,4.5
2023-03-31T04:25:20.241Z,4.39
2023-03-31T04:26:20.230Z,4.22
2023-03-31T04:27:20.239Z,4.22
2023-03-31T04:28:20.242Z,3.78
2023-03-31T04:29:20.240Z,4.22
2023-03-31T04:31:20.291Z,4.5
2023-03-31T04:32:20.227Z,4.22
2023-03-31T04:33:20.250Z,4.39
2023-03-31T04:35:20.249Z,4.5
2023-03-31T04:36:20.237Z,4.39
2023-03-31T04:37:20.239Z,4.5
2023-03-31T04:38:20.269Z,4.39
2023-03-31T04:39:20.230Z,4.5
2023-03-31T04:40:20.228Z,4.5
2023-03-31T04:41:20.246Z,4.39
2023-03-31T04:43:20.243Z,4.5
2023-03-31T04:45:20.234Z,4.22
2023-03-31T04:46:20.326Z,4.5
2023-03-31T04:48:20.252Z,4.39
2023-03-31T04:49:20.263Z,4.5
2023-03-31T04:50:20.228Z,4.5
2023-03-31T04:51:20.232Z,4.5
2023-03-31T04:52:20.224Z,4.22
2023-03-31T04:53:20.242Z,4.5
2023-03-31T04:54:20.255Z,4.5
2023-03-31T04:55:20.223Z,4.5
2023-03-31T04:56:20.238Z,4.39
2023-03-31T04:57:20.260Z,4.5
2023-03-31T04:58:20.228Z,4.11
2023-03-31T04:59:20.237Z,4.5
2023-03-31T05:00:20.253Z,4.39
2023-03-31T05:02:20.796Z,3.94
2023-03-31T05:03:20.375Z,4.22
2023-03-31T05:04:20.236Z,4.39
2023-03-31T05:05:20.250Z,4.22
2023-03-31T05:06:20.253Z,4.39
2023-03-31T05:07:20.256Z,4.11
2023-03-31T05:08:20.256Z,4.11
2023-03-31T05:10:20.285Z,4.11
2023-03-31T05:12:20.241Z,4.22
2023-03-31T05:13:20.253Z,3.78
2023-03-31T05:15:20.247Z,4.11
2023-03-31T05:16:20.254Z,3.94
2023-03-31T05:17:20.264Z,4.22
2023-03-31T05:18:20.262Z,4.22
2023-03-31T05:19:20.274Z,4.39
2023-03-31T05:21:20.272Z,4.39
2023-03-31T05:23:20.256Z,4.5
2023-03-31T05:24:20.262Z,4.22
2023-03-31T05:25:20.261Z,4.39
2023-03-31T05:26:20.277Z,4.39
2023-03-31T05:28:20.269Z,4.11
2023-03-31T05:30:20.264Z,4.5
2023-03-31T05:31:20.315Z,4.5
2023-03-31T05:32:20.261Z,4.11
2023-03-31T05:33:20.278Z,4.39
2023-03-31T05:34:20.319Z,4.5
2023-03-31T05:36:20.322Z,4.67
2023-03-31T05:38:20.272Z,4.5
2023-03-31T05:40:20.267Z,4.83
2023-03-31T05:41:20.270Z,4.67
2023-03-31T05:42:20.326Z,4.94
2023-03-31T05:44:20.268Z,4.67
2023-03-31T05:45:20.269Z,4.5
2023-03-31T05:46:20.321Z,4.5
2023-03-31T05:47:20.282Z,4.39
2023-03-31T05:49:20.280Z,4.39
2023-03-31T05:50:20.279Z,4.39
2023-03-31T05:51:20.271Z,4.5
2023-03-31T05:53:20.259Z,4.11
2023-03-31T05:54:20.308Z,4.5
2023-03-31T05:56:20.278Z,4.5
2023-03-31T05:57:20.311Z,4.5
2023-03-31T05:58:20.325Z,4.5
2023-03-31T05:59:20.422Z,4.5
2023-03-31T06:00:20.281Z,4.5
2023-03-31T06:01:20.306Z,4.39
2023-03-31T06:02:20.328Z,4.5
2023-03-31T06:03:20.346Z,4.5
2023-03-31T06:04:20.309Z,4.94
2023-03-31T06:05:20.288Z,4.5
2023-03-31T06:07:20.286Z,4.83
2023-03-31T06:09:20.290Z,4.94
2023-03-31T06:11:20.294Z,4.94
2023-03-31T06:13:20.283Z,4.94
2023-03-31T06:14:20.304Z,4.94
2023-03-31T06:16:20.281Z,4.94
2023-03-31T06:17:20.289Z,4.83
2023-03-31T06:18:20.280Z,4.94
2023-03-31T06:19:20.286Z,4.67
2023-03-31T06:21:20.288Z,4.5
2023-03-31T06:22:20.295Z,4.94
2023-03-31T06:23:20.287Z,4.94
2023-03-31T06:24:20.298Z,4.94
2023-03-31T06:25:20.306Z,4.67
2023-03-31T06:27:20.318Z,4.83
2023-03-31T06:28:20.323Z,4.94
2023-03-31T06:29:20.293Z,5.22
2023-03-31T06:30:20.315Z,5.11
2023-03-31T06:32:20.301Z,4.94
2023-03-31T06:33:20.316Z,4.83
2023-03-31T06:34:21.522Z,5.22
2023-03-31T06:35:20.313Z,4.94
2023-03-31T06:37:20.317Z,5.22
2023-03-31T06:38:20.315Z,5.22
2023-03-31T06:41:20.290Z,5.22
2023-03-31T06:42:20.333Z,5.39
2023-03-31T06:43:20.315Z,5.11
2023-03-31T06:44:20.287Z,5.39
2023-03-31T06:45:20.305Z,5.11
2023-03-31T06:46:20.316Z,5.22
2023-03-31T06:47:20.304Z,5.11
2023-03-31T06:48:20.327Z,5.11
2023-03-31T06:49:20.315Z,5.11
2023-03-31T06:50:20.296Z,4.94
2023-03-31T06:51:20.601Z,4.83
2023-03-31T06:53:20.301Z,5.22
2023-03-31T06:54:20.313Z,4.94
2023-03-31T06:56:20.344Z,4.94
2023-03-31T06:57:20.360Z,4.94
2023-03-31T06:59:20.307Z,5.22
2023-03-31T07:00:22.958Z,5.22
2023-03-31T07:01:20.311Z,5.22
2023-03-31T07:02:20.362Z,5.39
2023-03-31T07:04:20.315Z,5.22
2023-03-31T07:05:20.506Z,5.56
2023-03-31T07:06:20.333Z,5.56
2023-03-31T07:07:20.303Z,5.67
2023-03-31T07:08:20.311Z,5.67
2023-03-31T07:10:20.315Z,5.39
2023-03-31T07:12:20.312Z,5.11
2023-03-31T07:13:20.319Z,5.11
2023-03-31T07:14:20.303Z,5.11
2023-03-31T07:15:20.314Z,5.22
2023-03-31T07:16:20.367Z,5.22
2023-03-31T07:17:20.306Z,4.94
2023-03-31T07:18:20.326Z,5.11
2023-03-31T07:20:20.317Z,5.56
2023-03-31T07:21:20.315Z,5.22
2023-03-31T07:22:20.312Z,5.56
2023-03-31T07:23:20.296Z,5.56
2023-03-31T07:24:20.312Z,5.56
2023-03-31T07:25:20.309Z,5.39
2023-03-31T07:27:20.310Z,5.56
2023-03-31T07:28:20.304Z,5.56
2023-03-31T07:29:20.323Z,5.56
2023-03-31T07:30:20.318Z,5.56
2023-03-31T07:31:20.318Z,5.78
2023-03-31T07:32:20.384Z,5.56
2023-03-31T07:33:20.347Z,6.06
2023-03-31T07:34:20.363Z,6.22
2023-03-31T07:36:20.705Z,6.39
2023-03-31T07:37:20.328Z,6.39
2023-03-31T07:38:20.325Z,6.39
2023-03-31T07:40:20.319Z,5.94
2023-03-31T07:41:20.315Z,5.94
2023-03-31T07:42:20.310Z,5.94
2023-03-31T07:43:20.325Z,5.94
2023-03-31T07:44:20.323Z,5.94
2023-03-31T07:45:20.316Z,5.78
2023-03-31T07:46:20.379Z,5.56
2023-03-31T07:48:20.332Z,5.67
2023-03-31T07:49:20.316Z,5.78
2023-03-31T07:50:20.347Z,5.78
2023-03-31T07:51:20.315Z,5.78
2023-03-31T07:52:20.312Z,5.67
2023-03-31T07:53:20.321Z,5.67
2023-03-31T07:55:20.315Z,5.39
2023-03-31T07:56:20.345Z,5.56
2023-03-31T07:57:20.383Z,5.67
2023-03-31T07:58:20.324Z,5.56
2023-03-31T07:59:20.337Z,5.56
2023-03-31T08:00:20.352Z,5.67
2023-03-31T08:02:20.447Z,5.78
2023-03-31T08:03:20.337Z,5.67
2023-03-31T08:05:20.353Z,5.78
2023-03-31T08:06:20.384Z,5.39
2023-03-31T08:07:20.323Z,5.94
2023-03-31T08:08:20.326Z,5.78
2023-03-31T08:09:20.328Z,6.06
2023-03-31T08:10:20.335Z,5.94
2023-03-31T08:12:20.329Z,5.67
2023-03-31T08:13:20.326Z,5.94
2023-03-31T08:14:27.385Z,5.78
2023-03-31T08:15:20.334Z,5.78
2023-03-31T08:16:20.435Z,5.78
2023-03-31T08:17:20.329Z,6.06
2023-03-31T08:18:20.351Z,5.67
2023-03-31T08:19:20.349Z,6.06
2023-03-31T08:20:20.337Z,6.06
2023-03-31T08:21:22.373Z,6.39
2023-03-31T08:22:20.379Z,6.39
2023-03-31T08:24:20.338Z,6.39
2023-03-31T08:25:20.345Z,6.67
2023-03-31T08:26:20.339Z,6.78
2023-03-31T08:27:20.342Z,6.67
2023-03-31T08:29:20.352Z,7.39
2023-03-31T08:30:20.385Z,7.22
2023-03-31T08:32:20.334Z,7.39
2023-03-31T08:33:20.357Z,6.94
2023-03-31T08:35:20.337Z,6.67
2023-03-31T08:36:20.389Z,6.67
2023-03-31T08:37:20.345Z,6.67
2023-03-31T08:38:20.391Z,6.78
2023-03-31T08:40:20.344Z,6.67
2023-03-31T08:41:20.345Z,6.22
2023-03-31T08:42:20.346Z,6.67
2023-03-31T08:43:20.345Z,6.5
2023-03-31T08:44:20.335Z,6.5
2023-03-31T08:45:20.346Z,7.11
2023-03-31T08:46:20.381Z,6.67
2023-03-31T08:48:20.344Z,6.94
2023-03-31T08:49:20.345Z,6.78
2023-03-31T08:50:20.338Z,7.11
2023-03-31T08:51:20.351Z,6.94
2023-03-31T08:52:20.344Z,7.11
2023-03-31T08:53:20.370Z,6.94
2023-03-31T08:54:20.392Z,7.11
2023-03-31T08:56:20.357Z,7.39
2023-03-31T08:57:20.433Z,7.22
2023-03-31T08:58:20.368Z,7.11
2023-03-31T08:59:20.363Z,7.22
2023-03-31T09:00:20.348Z,7.39
2023-03-31T09:01:20.376Z,7.5
2023-03-31T09:02:20.392Z,7.5
2023-03-31T09:03:20.446Z,7.67
2023-03-31T09:04:20.482Z,7.67
2023-03-31T09:06:20.356Z,7.67
2023-03-31T09:07:20.402Z,7.67
2023-03-31T09:09:20.365Z,7.39
2023-03-31T09:10:20.394Z,7.22
2023-03-31T09:12:20.367Z,6.94
2023-03-31T09:13:20.363Z,7.39
2023-03-31T09:14:20.393Z,7.11
2023-03-31T09:16:20.418Z,7.39
2023-03-31T09:17:20.399Z,7.5
2023-03-31T09:18:20.363Z,7.5
2023-03-31T09:19:20.380Z,7.67
2023-03-31T09:20:20.406Z,7.5
2023-03-31T09:22:20.370Z,7.22
2023-03-31T09:23:20.376Z,7.39
2023-03-31T09:25:20.380Z,7.94
2023-03-31T09:26:20.408Z,8.11
2023-03-31T09:28:20.393Z,8.61
2023-03-31T09:29:20.396Z,8.78
2023-03-31T09:30:20.546Z,8.5
2023-03-31T09:31:20.400Z,8.78
2023-03-31T09:33:20.419Z,8.61
2023-03-31T09:35:20.379Z,10.22
2023-03-31T09:36:20.409Z,10.22
2023-03-31T09:37:20.388Z,11
2023-03-31T09:38:20.399Z,10.67
2023-03-31T09:39:20.388Z,10.11
2023-03-31T09:40:20.434Z,9.67
2023-03-31T09:41:20.415Z,10.22
2023-03-31T09:42:20.441Z,10.67
2023-03-31T09:44:20.399Z,10.67
2023-03-31T09:47:20.417Z,9.06
2023-03-31T09:49:20.412Z,8.61
2023-03-31T09:50:20.424Z,8.78
2023-03-31T09:51:20.426Z,8.11
2023-03-31T09:53:20.404Z,8.11
2023-03-31T09:54:20.401Z,8.39
2023-03-31T09:56:20.401Z,7.5
2023-03-31T09:57:20.408Z,7.22
2023-03-31T09:58:20.452Z,6.94
2023-03-31T09:59:20.401Z,7.22
2023-03-31T10:00:20.431Z,7.22
2023-03-31T10:01:20.416Z,7.11
2023-03-31T10:02:20.399Z,6.94
2023-03-31T10:04:20.426Z,7.11
2023-03-31T10:05:20.419Z,7.11
2023-03-31T10:07:20.416Z,7.39
2023-03-31T10:08:20.451Z,7.5
2023-03-31T10:09:20.407Z,7.94
2023-03-31T10:10:20.413Z,7.67
2023-03-31T10:12:20.410Z,7.11
2023-03-31T10:14:20.427Z,7.78
2023-03-31T10:16:20.443Z,7.67
2023-03-31T10:17:20.407Z,7.94
2023-03-31T10:18:20.529Z,7.67
2023-03-31T10:20:20.406Z,7.78
2023-03-31T10:21:20.440Z,7.94
2023-03-31T10:22:20.422Z,7.67
2023-03-31T10:24:20.423Z,7.39
2023-03-31T10:26:20.405Z,7.22
2023-03-31T10:28:20.527Z,6.94
2023-03-31T10:30:20.431Z,7.39
2023-03-31T10:32:20.413Z,7.5
2023-03-31T10:33:22.975Z,7.94
2023-03-31T10:34:20.420Z,7.67
2023-03-31T10:36:20.445Z,7.39
2023-03-31T10:37:20.406Z,8.11
2023-03-31T10:38:20.413Z,8.39
2023-03-31T10:40:20.398Z,8.78
2023-03-31T10:41:20.497Z,8.61
2023-03-31T10:42:20.415Z,8.39
2023-03-31T10:44:20.419Z,7.94
2023-03-31T10:45:29.909Z,8.28
2023-03-31T10:46:20.481Z,8.61
2023-03-31T10:48:20.418Z,8.78
2023-03-31T10:49:20.408Z,8.78
2023-03-31T10:50:20.424Z,9.22
2023-03-31T10:52:20.411Z,9.22
2023-03-31T10:54:20.424Z,9.78
2023-03-31T10:55:20.424Z,9.94
2023-03-31T10:56:20.420Z,10.22
2023-03-31T10:57:20.411Z,10.39
2023-03-31T10:58:20.421Z,10.22
2023-03-31T10:59:20.415Z,10.56
2023-03-31T11:00:20.407Z,10.83
2023-03-31T11:01:20.458Z,11.72
2023-03-31T11:02:20.490Z,11.94
2023-03-31T11:03:20.516Z,12.28
2023-03-31T11:04:20.430Z,12.72
2023-03-31T11:05:20.422Z,12.72
2023-03-31T11:07:20.418Z,12.44
2023-03-31T11:08:20.434Z,13.06
2023-03-31T11:10:20.417Z,12.11
2023-03-31T11:11:20.409Z,12.28
2023-03-31T11:12:20.417Z,12.44
2023-03-31T11:13:20.433Z,12.11
2023-03-31T11:14:20.411Z,12.56
2023-03-31T11:15:20.421Z,12.44
2023-03-31T11:16:20.559Z,12.11
2023-03-31T11:18:20.558Z,11.72
2023-03-31T11:19:20.418Z,11.83
2023-03-31T11:20:20.437Z,12.11
2023-03-31T11:21:20.422Z,12.56
2023-03-31T11:23:20.426Z,13.17
2023-03-31T11:24:20.428Z,13.17
2023-03-31T11:25:20.420Z,13.06
2023-03-31T11:26:20.445Z,13.17
2023-03-31T11:27:20.437Z,13.94
2023-03-31T11:29:20.430Z,13.67
2023-03-31T11:30:20.448Z,13.5
2023-03-31T11:32:20.429Z,13.5
2023-03-31T11:33:20.430Z,13.17
2023-03-31T11:34:20.488Z,13.06
2023-03-31T11:36:20.606Z,12.72
2023-03-31T11:37:20.432Z,12.89
2023-03-31T11:39:20.445Z,12.89
2023-03-31T11:40:20.447Z,12.89
2023-03-31T11:41:20.423Z,12.44
2023-03-31T11:42:20.440Z,12.89
2023-03-31T11:44:20.426Z,13.17
2023-03-31T11:45:20.510Z,13.06
2023-03-31T11:47:20.429Z,12.72
2023-03-31T11:48:20.461Z,12.56
2023-03-31T11:49:20.435Z,12.72
2023-03-31T11:50:20.459Z,12
2023-03-31T11:52:20.435Z,11.61
2023-03-31T11:53:20.426Z,12
2023-03-31T11:54:20.429Z,12
2023-03-31T11:55:20.432Z,12.5
2023-03-31T11:56:20.452Z,12.94
2023-03-31T11:57:20.453Z,13.67
2023-03-31T11:58:20.435Z,13.83
2023-03-31T11:59:20.457Z,14
2023-03-31T12:01:20.429Z,14.11
2023-03-31T12:02:20.462Z,13.39
2023-03-31T12:03:20.564Z,14
2023-03-31T12:04:20.465Z,13.39
2023-03-31T12:06:20.523Z,12.94
2023-03-31T12:08:20.432Z,12.94
2023-03-31T12:09:20.449Z,13.67
2023-03-31T12:10:20.436Z,12.17
2023-03-31T12:11:20.439Z,11.61
2023-03-31T12:12:20.431Z,10.89
2023-03-31T12:13:20.442Z,11.17
2023-03-31T12:14:20.460Z,11.5
2023-03-31T12:15:20.443Z,11.17
2023-03-31T12:17:20.445Z,11.78
2023-03-31T12:18:20.443Z,12.33
2023-03-31T12:19:20.450Z,12.33
2023-03-31T12:20:20.439Z,11.61
2023-03-31T12:21:20.440Z,11.61
2023-03-31T12:22:20.476Z,12
2023-03-31T12:24:20.450Z,12.94
2023-03-31T12:25:20.431Z,12.5
2023-03-31T12:26:20.439Z,11.61
2023-03-31T12:28:20.453Z,10.89
2023-03-31T12:29:20.463Z,10.89
2023-03-31T12:30:20.440Z,10.72
2023-03-31T12:31:20.513Z,11.17
2023-03-31T12:32:20.448Z,11.06
2023-03-31T12:33:20.439Z,11.33
2023-03-31T12:34:20.496Z,11.17
2023-03-31T12:35:20.436Z,11.06
2023-03-31T12:36:20.498Z,10.89
2023-03-31T12:37:20.448Z,11.5
2023-03-31T12:38:20.485Z,11.17
2023-03-31T12:40:20.460Z,10.89
2023-03-31T12:41:20.449Z,11.06
2023-03-31T12:42:20.459Z,11.06
2023-03-31T12:43:20.454Z,11.33
2023-03-31T12:45:20.446Z,11.06
2023-03-31T12:46:20.447Z,10.72
2023-03-31T12:47:20.500Z,10.33
2023-03-31T12:48:20.485Z,10.44
2023-03-31T12:50:20.456Z,10.61
2023-03-31T12:52:20.467Z,10.44
2023-03-31T12:53:20.456Z,10.72
2023-03-31T12:54:20.486Z,10.44
2023-03-31T12:55:20.507Z,10.44
2023-03-31T12:57:20.490Z,10.61
2023-03-31T12:58:20.460Z,10.17
2023-03-31T12:59:20.442Z,10.33
2023-03-31T13:00:20.462Z,10.33
2023-03-31T13:01:20.484Z,10.44
2023-03-31T13:02:20.507Z,10.72
2023-03-31T13:03:20.477Z,10.72
2023-03-31T13:04:20.450Z,10.33
2023-03-31T13:05:20.478Z,10.33
2023-03-31T13:06:20.451Z,10
2023-03-31T13:07:28.070Z,10.33
2023-03-31T13:09:20.469Z,10.17
2023-03-31T13:10:20.527Z,9.44
2023-03-31T13:12:20.461Z,9.44
2023-03-31T13:13:20.454Z,9.28
2023-03-31T13:14:20.443Z,9.28
2023-03-31T13:15:20.493Z,9.17
2023-03-31T13:17:20.454Z,8.61
2023-03-31T13:19:20.467Z,8.67
2023-03-31T13:20:20.455Z,8.67
2023-03-31T13:22:20.468Z,8.33
2023-03-31T13:23:20.455Z,8.44
2023-03-31T13:24:20.465Z,8.17
2023-03-31T13:26:20.492Z,8.17
2023-03-31T13:28:20.461Z,7.89
2023-03-31T13:29:20.457Z,7.44
2023-03-31T13:30:20.484Z,7.72
2023-03-31T13:32:20.449Z,7.33
2023-03-31T13:33:20.448Z,7.17
2023-03-31T13:34:20.448Z,7.33
2023-03-31T13:35:20.459Z,7.17
2023-03-31T13:36:20.480Z,7.17
2023-03-31T13:37:20.450Z,6.72
2023-03-31T13:38:20.457Z,7.44
2023-03-31T13:39:20.460Z,7.61
2023-03-31T13:40:20.449Z,7.61
2023-03-31T13:41:20.446Z,7
2023-03-31T13:42:20.471Z,7
2023-03-31T13:43:20.451Z,6.89
2023-03-31T13:44:20.458Z,6.89
2023-03-31T13:45:20.495Z,6.89
2023-03-31T13:46:20.506Z,6.72
2023-03-31T13:47:20.467Z,6.61
2023-03-31T13:49:20.464Z,6.33
2023-03-31T13:50:20.435Z,6.17
2023-03-31T13:51:20.459Z,6
2023-03-31T13:53:20.465Z,6
2023-03-31T13:55:20.465Z,5.89
2023-03-31T13:56:20.461Z,6.17
2023-03-31T13:57:20.534Z,5.89
2023-03-31T13:59:20.495Z,6
2023-03-31T14:01:20.474Z,6.17
2023-03-31T14:02:20.486Z,5.89
2023-03-31T14:03:20.523Z,6
2023-03-31T14:04:20.455Z,5.72
2023-03-31T14:05:20.451Z,5.89
2023-03-31T14:06:20.451Z,6
2023-03-31T14:07:20.485Z,6
2023-03-31T14:09:20.488Z,6
2023-03-31T14:10:20.485Z,5.72
2023-03-31T14:12:20.468Z,5.89
2023-03-31T14:14:20.486Z,5.83
2023-03-31T14:15:20.453Z,5.67
2023-03-31T14:16:20.541Z,5.94
2023-03-31T14:18:20.455Z,6.06
2023-03-31T14:20:20.474Z,5.78
2023-03-31T14:21:20.457Z,5.78
2023-03-31T14:22:20.452Z,5.94
2023-03-31T14:23:20.484Z,5.94
2023-03-31T14:25:20.462Z,5.78
2023-03-31T14:26:20.484Z,6.06
2023-03-31T14:27:20.472Z,5.94
2023-03-31T14:29:20.480Z,5.78
2023-03-31T14:30:20.487Z,5.94
2023-03-31T14:32:20.499Z,5.67
2023-03-31T14:33:20.479Z,6.06
2023-03-31T14:34:20.474Z,5.94
2023-03-31T14:35:20.481Z,6.06
2023-03-31T14:37:20.480Z,6.06
2023-03-31T14:38:20.481Z,5.94
2023-03-31T14:39:20.484Z,6.06
2023-03-31T14:40:20.471Z,5.78
2023-03-31T14:41:20.481Z,5.94
2023-03-31T14:43:20.471Z,5.78
2023-03-31T14:44:20.491Z,6.06
2023-03-31T14:45:20.484Z,5.94
2023-03-31T14:46:20.521Z,5.78
2023-03-31T14:47:20.479Z,5.78
2023-03-31T14:48:20.478Z,5.67
2023-03-31T14:50:20.463Z,5.39
2023-03-31T14:51:20.476Z,5.22
2023-03-31T14:52:20.460Z,4.94
2023-03-31T14:53:20.469Z,5.11
2023-03-31T14:54:20.486Z,5.39
2023-03-31T14:55:21.705Z,5.11
2023-03-31T14:56:20.473Z,4.67
2023-03-31T14:57:20.599Z,5.11
2023-03-31T14:58:20.537Z,4.94
2023-03-31T15:00:20.491Z,4.83
2023-03-31T15:02:20.508Z,4.94
2023-03-31T15:04:23.728Z,4.67
2023-03-31T15:06:20.481Z,5.11
2023-03-31T15:07:20.491Z,4.94
2023-03-31T15:09:20.481Z,5.11
2023-03-31T15:11:20.480Z,4.94
2023-03-31T15:12:20.484Z,4.94
2023-03-31T15:14:20.740Z,4.94
2023-03-31T15:16:20.537Z,5.11
2023-03-31T15:17:20.507Z,4.94
2023-03-31T15:18:20.521Z,5.11
2023-03-31T15:20:20.486Z,5.22
2023-03-31T15:21:20.506Z,5.22
2023-03-31T15:22:20.507Z,5.39
2023-03-31T15:23:20.491Z,5.39
2023-03-31T15:24:20.936Z,5.39
2023-03-31T15:25:22.451Z,5.67
2023-03-31T15:26:22.621Z,5.22
2023-03-31T15:28:20.491Z,5.39
2023-03-31T15:29:20.485Z,5.39
2023-03-31T15:30:20.497Z,5.39
2023-03-31T15:32:20.572Z,5.22
2023-03-31T15:33:20.561Z,5.39
2023-03-31T15:34:20.642Z,5.39
2023-03-31T15:36:20.484Z,5.22
2023-03-31T15:37:21.041Z,5.39
2023-03-31T15:39:20.486Z,5.78
2023-03-31T15:40:20.507Z,5.39
2023-03-31T15:41:20.480Z,5.22
2023-03-31T15:42:20.493Z,5.11
2023-03-31T15:44:20.478Z,5.11
2023-03-31T15:45:20.475Z,5.39
2023-03-31T15:46:20.522Z,5.39
2023-03-31T15:47:20.487Z,5.39
2023-03-31T15:48:20.490Z,5.22
2023-03-31T15:49:20.567Z,5.11
2023-03-31T15:50:20.508Z,5.39
2023-03-31T15:51:20.487Z,4.94
2023-03-31T15:52:20.501Z,5.39
2023-03-31T15:53:21.760Z,5.39
2023-03-31T15:54:20.520Z,5.39
2023-03-31T15:56:20.497Z,4.83
2023-03-31T15:57:20.487Z,5.22
2023-03-31T15:58:20.481Z,5.22
2023-03-31T15:59:20.494Z,5.11
2023-03-31T16:00:20.489Z,5.39
2023-03-31T16:01:20.490Z,5.22
2023-03-31T16:02:20.511Z,5.22
2023-03-31T16:03:22.202Z,5.11
2023-03-31T16:04:20.509Z,4.94
2023-03-31T16:05:26.707Z,5.22
2023-03-31T16:06:20.546Z,5.39
2023-03-31T16:08:20.492Z,5.22
2023-03-31T16:09:20.495Z,5.39
2023-03-31T16:10:20.508Z,5.22
2023-03-31T16:11:20.483Z,5.39
2023-03-31T16:12:20.480Z,5.39
2023-03-31T16:13:20.490Z,5.39
2023-03-31T16:15:22.521Z,5.22
2023-03-31T16:16:20.511Z,5.39
2023-03-31T16:17:20.476Z,5.39
2023-03-31T16:18:20.491Z,5.39
2023-03-31T16:19:20.830Z,5.39
2023-03-31T16:21:20.509Z,5.11
2023-03-31T16:22:20.520Z,5.22
2023-03-31T16:24:20.499Z,5.39
2023-03-31T16:25:20.513Z,5.39
2023-03-31T16:26:20.503Z,5.22
2023-03-31T16:27:20.495Z,5.39
2023-03-31T16:28:20.517Z,5.39
2023-03-31T16:30:20.501Z,5.22
2023-03-31T16:31:20.506Z,5.39
2023-03-31T16:32:20.502Z,5.39
2023-03-31T16:33:20.493Z,5.39
2023-03-31T16:34:20.490Z,5.39
2023-03-31T16:35:20.498Z,5.39
2023-03-31T16:36:20.580Z,5.39
2023-03-31T16:37:20.503Z,5.56
2023-03-31T16:38:20.519Z,5.39
2023-03-31T16:39:20.496Z,5.39
2023-03-31T16:40:20.520Z,5.39
2023-03-31T16:41:20.493Z,5.22
2023-03-31T16:42:20.517Z,5.22
2023-03-31T16:44:20.521Z,5.22
2023-03-31T16:45:20.511Z,5.39
2023-03-31T16:46:20.534Z,5.22
2023-03-31T16:47:31.804Z,5.22
2023-03-31T16:48:20.502Z,5.22